sensor_id;sensor_type;location;lat;lon;timestamp;P1;durP1;ratioP1;P2;durP2;ratioP2
9807;SDS011;4943;52.550;13.462;2023-10-13T00:01:06;311.60;;;218.53;;
9807;SDS011;4943;52.550;13.462;2023-10-13T00:03:38;314.37;;;220.77;;
9807;SDS011;4943;52.550;13.462;2023-10-13T00:06:06;314.47;;;219.03;;
9807;SDS011;4943;52.550;13.462;2023-10-13T00:08:35;320.70;;;222.00;;
9807;SDS011;4943;52.550;13.462;2023-10-13T00:11:05;320.60;;;221.93;;
9807;SDS011;4943;52.550;13.462;2023-10-13T00:13:37;327.70;;;219.23;;
9807;SDS011;4943;52.550;13.462;2023-10-13T00:16:09;319.83;;;230.47;;
9807;SDS011;4943;52.550;13.462;2023-10-13T00:18:43;315.20;;;223.83;;
9807;SDS011;4943;52.550;13.462;2023-10-13T00:21:12;315.07;;;220.40;;
9807;SDS011;4943;52.550;13.462;2023-10-13T00:23:40;317.23;;;227.60;;
9807;SDS011;4943;52.550;13.462;2023-10-13T00:26:19;318.03;;;223.27;;
9807;SDS011;4943;52.550;13.462;2023-10-13T00:28:51;316.93;;;224.80;;
9807;SDS011;4943;52.550;13.462;2023-10-13T00:31:35;320.50;;;219.67;;
9807;SDS011;4943;52.550;13.462;2023-10-13T00:34:05;314.50;;;224.43;;
9807;SDS011;4943;52.550;13.462;2023-10-13T00:36:38;318.57;;;222.30;;
9807;SDS011;4943;52.550;13.462;2023-10-13T00:39:14;319.70;;;229.13;;
9807;SDS011;4943;52.550;13.462;2023-10-13T00:41:43;320.73;;;228.77;;
9807;SDS011;4943;52.550;13.462;2023-10-13T00:44:20;320.00;;;220.83;;
9807;SDS011;4943;52.550;13.462;2023-10-13T00:46:58;315.97;;;225.67;;
9807;SDS011;4943;52.550;13.462;2023-10-13T00:49:25;316.50;;;227.57;;
9807;SDS011;4943;52.550;13.462;2023-10-13T00:51:56;313.10;;;215.00;;
9807;SDS011;4943;52.550;13.462;2023-10-13T00:54:24;315.70;;;223.43;;
9807;SDS011;4943;52.550;13.462;2023-10-13T00:56:54;318.10;;;220.57;;
9807;SDS011;4943;52.550;13.462;2023-10-13T00:59:32;311.30;;;219.43;;
9807;SDS011;4943;52.550;13.462;2023-10-13T01:02:02;312.60;;;217.70;;
9807;SDS011;4943;52.550;13.462;2023-10-13T01:04:51;312.30;;;218.30;;
9807;SDS011;4943;52.550;13.462;2023-10-13T01:07:21;313.43;;;218.47;;
9807;SDS011;4943;52.550;13.462;2023-10-13T01:09:49;315.47;;;217.27;;
9807;SDS011;4943;52.550;13.462;2023-10-13T01:12:17;316.20;;;226.37;;
9807;SDS011;4943;52.550;13.462;2023-10-13T01:14:46;316.93;;;221.40;;
9807;SDS011;4943;52.550;13.462;2023-10-13T01:17:15;317.13;;;219.27;;
9807;SDS011;4943;52.550;13.462;2023-10-13T01:19:42;321.43;;;222.27;;
9807;SDS011;4943;52.550;13.462;2023-10-13T01:22:12;312.57;;;220.80;;
9807;SDS011;4943;52.550;13.462;2023-10-13T01:24:41;314.57;;;220.30;;
9807;SDS011;4943;52.550;13.462;2023-10-13T01:27:10;317.43;;;219.20;;
9807;SDS011;4943;52.550;13.462;2023-10-13T01:29:44;313.93;;;215.70;;
9807;SDS011;4943;52.550;13.462;2023-10-13T01:32:15;312.00;;;219.77;;
9807;SDS011;4943;52.550;13.462;2023-10-13T01:34:44;314.50;;;218.20;;
9807;SDS011;4943;52.550;13.462;2023-10-13T01:37:13;322.07;;;217.03;;
9807;SDS011;4943;52.550;13.462;2023-10-13T01:39:44;311.40;;;213.90;;
9807;SDS011;4943;52.550;13.462;2023-10-13T01:42:14;317.13;;;203.47;;
9807;SDS011;4943;52.550;13.462;2023-10-13T01:44:46;307.73;;;208.57;;
9807;SDS011;4943;52.550;13.462;2023-10-13T01:47:14;311.17;;;203.70;;
9807;SDS011;4943;52.550;13.462;2023-10-13T01:49:43;308.33;;;200.23;;
9807;SDS011;4943;52.550;13.462;2023-10-13T01:52:14;309.90;;;209.67;;
9807;SDS011;4943;52.550;13.462;2023-10-13T01:54:44;307.57;;;202.37;;
9807;SDS011;4943;52.550;13.462;2023-10-13T01:57:12;309.03;;;205.03;;
9807;SDS011;4943;52.550;13.462;2023-10-13T01:59:40;313.10;;;200.40;;
9807;SDS011;4943;52.550;13.462;2023-10-13T02:02:10;308.30;;;202.03;;
9807;SDS011;4943;52.550;13.462;2023-10-13T02:04:39;311.17;;;205.27;;
9807;SDS011;4943;52.550;13.462;2023-10-13T02:07:15;310.90;;;203.70;;
9807;SDS011;4943;52.550;13.462;2023-10-13T02:09:44;311.37;;;207.93;;
9807;SDS011;4943;52.550;13.462;2023-10-13T02:12:13;309.23;;;207.80;;
9807;SDS011;4943;52.550;13.462;2023-10-13T02:14:41;312.47;;;205.03;;
9807;SDS011;4943;52.550;13.462;2023-10-13T02:17:11;306.13;;;201.83;;
9807;SDS011;4943;52.550;13.462;2023-10-13T02:19:38;314.10;;;203.83;;
9807;SDS011;4943;52.550;13.462;2023-10-13T02:22:11;307.73;;;200.20;;
9807;SDS011;4943;52.550;13.462;2023-10-13T02:24:52;310.77;;;203.20;;
9807;SDS011;4943;52.550;13.462;2023-10-13T02:27:23;308.67;;;204.70;;
9807;SDS011;4943;52.550;13.462;2023-10-13T02:29:51;317.87;;;203.73;;
9807;SDS011;4943;52.550;13.462;2023-10-13T02:32:25;309.63;;;204.13;;
9807;SDS011;4943;52.550;13.462;2023-10-13T02:34:53;313.00;;;203.53;;
9807;SDS011;4943;52.550;13.462;2023-10-13T02:37:32;314.70;;;203.83;;
9807;SDS011;4943;52.550;13.462;2023-10-13T02:40:00;317.90;;;211.20;;
9807;SDS011;4943;52.550;13.462;2023-10-13T02:42:29;314.20;;;207.07;;
9807;SDS011;4943;52.550;13.462;2023-10-13T02:44:56;309.87;;;205.93;;
9807;SDS011;4943;52.550;13.462;2023-10-13T02:47:24;310.83;;;209.90;;
9807;SDS011;4943;52.550;13.462;2023-10-13T02:49:53;311.80;;;211.87;;
9807;SDS011;4943;52.550;13.462;2023-10-13T02:52:20;310.63;;;210.50;;
9807;SDS011;4943;52.550;13.462;2023-10-13T02:54:51;312.90;;;209.97;;
9807;SDS011;4943;52.550;13.462;2023-10-13T02:57:19;310.17;;;205.83;;
9807;SDS011;4943;52.550;13.462;2023-10-13T02:59:50;309.83;;;202.30;;
9807;SDS011;4943;52.550;13.462;2023-10-13T03:02:23;313.33;;;209.93;;
9807;SDS011;4943;52.550;13.462;2023-10-13T03:04:53;309.93;;;204.23;;
9807;SDS011;4943;52.550;13.462;2023-10-13T03:07:25;315.30;;;210.37;;
9807;SDS011;4943;52.550;13.462;2023-10-13T03:09:56;312.07;;;213.23;;
9807;SDS011;4943;52.550;13.462;2023-10-13T03:12:27;312.83;;;216.80;;
9807;SDS011;4943;52.550;13.462;2023-10-13T03:14:59;312.17;;;214.47;;
9807;SDS011;4943;52.550;13.462;2023-10-13T03:17:39;315.87;;;219.67;;
9807;SDS011;4943;52.550;13.462;2023-10-13T03:20:10;316.97;;;216.83;;
9807;SDS011;4943;52.550;13.462;2023-10-13T03:22:39;313.10;;;219.67;;
9807;SDS011;4943;52.550;13.462;2023-10-13T03:25:11;314.10;;;215.07;;
9807;SDS011;4943;52.550;13.462;2023-10-13T03:27:45;316.57;;;218.30;;
9807;SDS011;4943;52.550;13.462;2023-10-13T03:30:28;324.23;;;216.53;;
9807;SDS011;4943;52.550;13.462;2023-10-13T03:33:02;317.13;;;220.17;;
9807;SDS011;4943;52.550;13.462;2023-10-13T03:35:34;321.77;;;217.90;;
9807;SDS011;4943;52.550;13.462;2023-10-13T03:38:07;318.23;;;218.97;;
9807;SDS011;4943;52.550;13.462;2023-10-13T03:40:43;319.87;;;223.93;;
9807;SDS011;4943;52.550;13.462;2023-10-13T03:43:33;320.30;;;221.67;;
9807;SDS011;4943;52.550;13.462;2023-10-13T03:46:11;318.63;;;226.53;;
9807;SDS011;4943;52.550;13.462;2023-10-13T03:48:39;317.50;;;225.83;;
9807;SDS011;4943;52.550;13.462;2023-10-13T03:51:20;318.07;;;225.63;;
9807;SDS011;4943;52.550;13.462;2023-10-13T03:53:56;325.83;;;221.67;;
9807;SDS011;4943;52.550;13.462;2023-10-13T03:56:25;319.37;;;226.23;;
9807;SDS011;4943;52.550;13.462;2023-10-13T03:59:07;320.53;;;230.47;;
9807;SDS011;4943;52.550;13.462;2023-10-13T04:01:45;320.07;;;218.23;;
9807;SDS011;4943;52.550;13.462;2023-10-13T04:04:24;320.17;;;221.47;;
9807;SDS011;4943;52.550;13.462;2023-10-13T04:07:08;320.93;;;221.37;;
9807;SDS011;4943;52.550;13.462;2023-10-13T04:10:02;315.77;;;221.07;;
9807;SDS011;4943;52.550;13.462;2023-10-13T04:12:49;320.13;;;223.53;;
9807;SDS011;4943;52.550;13.462;2023-10-13T04:15:36;319.87;;;225.50;;
9807;SDS011;4943;52.550;13.462;2023-10-13T04:18:09;320.47;;;228.97;;
9807;SDS011;4943;52.550;13.462;2023-10-13T04:21:00;319.27;;;225.17;;
9807;SDS011;4943;52.550;13.462;2023-10-13T04:23:45;319.87;;;227.57;;
9807;SDS011;4943;52.550;13.462;2023-10-13T04:26:30;329.53;;;230.03;;
9807;SDS011;4943;52.550;13.462;2023-10-13T04:29:09;324.03;;;228.27;;
9807;SDS011;4943;52.550;13.462;2023-10-13T04:31:56;321.83;;;225.33;;
9807;SDS011;4943;52.550;13.462;2023-10-13T04:34:26;328.97;;;229.50;;
9807;SDS011;4943;52.550;13.462;2023-10-13T04:37:01;324.07;;;233.37;;
9807;SDS011;4943;52.550;13.462;2023-10-13T04:39:49;318.47;;;230.97;;
9807;SDS011;4943;52.550;13.462;2023-10-13T04:42:23;325.07;;;233.57;;
9807;SDS011;4943;52.550;13.462;2023-10-13T04:45:06;322.93;;;243.30;;
9807;SDS011;4943;52.550;13.462;2023-10-13T04:47:55;328.07;;;240.43;;
9807;SDS011;4943;52.550;13.462;2023-10-13T04:50:40;334.27;;;235.73;;
9807;SDS011;4943;52.550;13.462;2023-10-13T04:53:12;324.83;;;235.70;;
9807;SDS011;4943;52.550;13.462;2023-10-13T04:55:59;321.23;;;233.93;;
9807;SDS011;4943;52.550;13.462;2023-10-13T04:58:51;328.53;;;235.63;;
9807;SDS011;4943;52.550;13.462;2023-10-13T05:01:36;323.03;;;233.43;;
9807;SDS011;4943;52.550;13.462;2023-10-13T05:04:38;336.87;;;238.53;;
9807;SDS011;4943;52.550;13.462;2023-10-13T05:07:22;329.77;;;235.53;;
9807;SDS011;4943;52.550;13.462;2023-10-13T05:10:08;324.77;;;231.37;;
9807;SDS011;4943;52.550;13.462;2023-10-13T05:12:53;334.37;;;245.77;;
9807;SDS011;4943;52.550;13.462;2023-10-13T05:15:42;326.87;;;243.13;;
9807;SDS011;4943;52.550;13.462;2023-10-13T05:18:28;327.73;;;238.47;;
9807;SDS011;4943;52.550;13.462;2023-10-13T05:21:15;329.87;;;241.60;;
9807;SDS011;4943;52.550;13.462;2023-10-13T05:24:01;326.33;;;235.30;;
9807;SDS011;4943;52.550;13.462;2023-10-13T05:26:46;325.13;;;240.60;;
9807;SDS011;4943;52.550;13.462;2023-10-13T05:29:32;326.87;;;245.27;;
9807;SDS011;4943;52.550;13.462;2023-10-13T05:32:18;326.33;;;240.47;;
9807;SDS011;4943;52.550;13.462;2023-10-13T05:35:04;328.60;;;233.33;;
9807;SDS011;4943;52.550;13.462;2023-10-13T05:37:51;325.27;;;238.73;;
9807;SDS011;4943;52.550;13.462;2023-10-13T05:40:36;328.47;;;243.00;;
9807;SDS011;4943;52.550;13.462;2023-10-13T05:43:22;323.57;;;235.50;;
9807;SDS011;4943;52.550;13.462;2023-10-13T05:46:08;336.07;;;243.40;;
9807;SDS011;4943;52.550;13.462;2023-10-13T05:48:53;325.77;;;238.87;;
9807;SDS011;4943;52.550;13.462;2023-10-13T05:51:36;321.57;;;234.37;;
9807;SDS011;4943;52.550;13.462;2023-10-13T05:54:25;327.57;;;239.00;;
9807;SDS011;4943;52.550;13.462;2023-10-13T05:57:11;326.20;;;238.07;;
9807;SDS011;4943;52.550;13.462;2023-10-13T05:59:56;327.47;;;241.40;;
9807;SDS011;4943;52.550;13.462;2023-10-13T06:02:42;324.77;;;240.00;;
9807;SDS011;4943;52.550;13.462;2023-10-13T06:05:27;331.37;;;244.20;;
9807;SDS011;4943;52.550;13.462;2023-10-13T06:08:13;331.43;;;236.53;;
9807;SDS011;4943;52.550;13.462;2023-10-13T06:11:03;326.10;;;237.10;;
9807;SDS011;4943;52.550;13.462;2023-10-13T06:13:49;325.70;;;245.90;;
9807;SDS011;4943;52.550;13.462;2023-10-13T06:16:34;329.23;;;249.00;;
9807;SDS011;4943;52.550;13.462;2023-10-13T06:19:20;329.50;;;244.27;;
9807;SDS011;4943;52.550;13.462;2023-10-13T06:22:06;330.67;;;251.90;;
9807;SDS011;4943;52.550;13.462;2023-10-13T06:24:51;328.27;;;252.93;;
9807;SDS011;4943;52.550;13.462;2023-10-13T06:27:38;329.87;;;249.97;;
9807;SDS011;4943;52.550;13.462;2023-10-13T06:30:23;325.10;;;252.10;;
9807;SDS011;4943;52.550;13.462;2023-10-13T06:32:51;332.40;;;261.37;;
9807;SDS011;4943;52.550;13.462;2023-10-13T06:35:20;331.47;;;257.17;;
9807;SDS011;4943;52.550;13.462;2023-10-13T06:37:50;328.67;;;248.20;;
9807;SDS011;4943;52.550;13.462;2023-10-13T06:40:18;330.43;;;260.07;;
9807;SDS011;4943;52.550;13.462;2023-10-13T06:42:54;330.97;;;261.33;;
9807;SDS011;4943;52.550;13.462;2023-10-13T06:45:38;333.53;;;268.37;;
9807;SDS011;4943;52.550;13.462;2023-10-13T06:48:06;331.77;;;257.23;;
9807;SDS011;4943;52.550;13.462;2023-10-13T06:50:38;331.63;;;261.43;;
9807;SDS011;4943;52.550;13.462;2023-10-13T06:53:07;336.90;;;261.37;;
9807;SDS011;4943;52.550;13.462;2023-10-13T06:55:39;335.00;;;267.17;;
9807;SDS011;4943;52.550;13.462;2023-10-13T06:58:08;337.10;;;259.37;;
9807;SDS011;4943;52.550;13.462;2023-10-13T07:00:40;332.50;;;258.50;;
9807;SDS011;4943;52.550;13.462;2023-10-13T07:03:19;336.77;;;271.90;;
9807;SDS011;4943;52.550;13.462;2023-10-13T07:05:47;336.90;;;277.00;;
9807;SDS011;4943;52.550;13.462;2023-10-13T07:08:16;335.93;;;280.00;;
9807;SDS011;4943;52.550;13.462;2023-10-13T07:10:49;340.00;;;288.67;;
9807;SDS011;4943;52.550;13.462;2023-10-13T07:13:29;347.53;;;304.03;;
9807;SDS011;4943;52.550;13.462;2023-10-13T07:16:00;345.63;;;298.20;;
9807;SDS011;4943;52.550;13.462;2023-10-13T07:18:35;341.20;;;282.80;;
9807;SDS011;4943;52.550;13.462;2023-10-13T07:21:09;340.07;;;290.87;;
9807;SDS011;4943;52.550;13.462;2023-10-13T07:23:37;341.23;;;288.13;;
9807;SDS011;4943;52.550;13.462;2023-10-13T07:26:06;344.53;;;288.50;;
9807;SDS011;4943;52.550;13.462;2023-10-13T07:28:36;333.47;;;270.07;;
9807;SDS011;4943;52.550;13.462;2023-10-13T07:31:11;335.47;;;279.90;;
9807;SDS011;4943;52.550;13.462;2023-10-13T07:33:40;332.27;;;273.10;;
9807;SDS011;4943;52.550;13.462;2023-10-13T07:36:09;339.67;;;275.43;;
9807;SDS011;4943;52.550;13.462;2023-10-13T07:38:44;341.90;;;281.90;;
9807;SDS011;4943;52.550;13.462;2023-10-13T07:41:46;338.50;;;274.83;;
9807;SDS011;4943;52.550;13.462;2023-10-13T07:44:19;336.90;;;270.43;;
9807;SDS011;4943;52.550;13.462;2023-10-13T07:46:52;374.83;;;334.73;;
9807;SDS011;4943;52.550;13.462;2023-10-13T07:49:29;401.73;;;361.23;;
9807;SDS011;4943;52.550;13.462;2023-10-13T07:51:59;418.47;;;377.40;;
9807;SDS011;4943;52.550;13.462;2023-10-13T07:54:42;399.73;;;359.37;;
9807;SDS011;4943;52.550;13.462;2023-10-13T07:57:13;404.13;;;363.47;;
9807;SDS011;4943;52.550;13.462;2023-10-13T07:59:43;358.90;;;320.47;;
9807;SDS011;4943;52.550;13.462;2023-10-13T08:02:17;357.97;;;319.40;;
9807;SDS011;4943;52.550;13.462;2023-10-13T08:04:59;390.17;;;349.73;;
9807;SDS011;4943;52.550;13.462;2023-10-13T08:07:30;389.80;;;350.03;;
9807;SDS011;4943;52.550;13.462;2023-10-13T08:10:00;404.70;;;364.47;;
9807;SDS011;4943;52.550;13.462;2023-10-13T08:12:28;407.60;;;366.60;;
9807;SDS011;4943;52.550;13.462;2023-10-13T08:14:57;422.03;;;381.20;;
9807;SDS011;4943;52.550;13.462;2023-10-13T08:17:39;460.57;;;418.33;;
9807;SDS011;4943;52.550;13.462;2023-10-13T08:20:10;426.53;;;385.50;;
9807;SDS011;4943;52.550;13.462;2023-10-13T08:22:43;456.23;;;413.80;;
9807;SDS011;4943;52.550;13.462;2023-10-13T08:25:14;466.10;;;423.47;;
9807;SDS011;4943;52.550;13.462;2023-10-13T08:28:08;471.33;;;428.83;;
9807;SDS011;4943;52.550;13.462;2023-10-13T08:31:03;477.03;;;433.90;;
9807;SDS011;4943;52.550;13.462;2023-10-13T08:33:40;481.53;;;438.00;;
9807;SDS011;4943;52.550;13.462;2023-10-13T08:36:13;490.37;;;446.57;;
9807;SDS011;4943;52.550;13.462;2023-10-13T08:38:55;485.33;;;442.37;;
9807;SDS011;4943;52.550;13.462;2023-10-13T08:41:23;467.37;;;425.10;;
9807;SDS011;4943;52.550;13.462;2023-10-13T08:44:20;505.43;;;461.33;;
9807;SDS011;4943;52.550;13.462;2023-10-13T08:47:12;508.53;;;463.43;;
9807;SDS011;4943;52.550;13.462;2023-10-13T08:49:44;507.23;;;463.30;;
9807;SDS011;4943;52.550;13.462;2023-10-13T08:52:17;504.87;;;460.70;;
9807;SDS011;4943;52.550;13.462;2023-10-13T08:55:12;534.13;;;488.33;;
9807;SDS011;4943;52.550;13.462;2023-10-13T08:57:55;592.77;;;544.37;;
9807;SDS011;4943;52.550;13.462;2023-10-13T09:00:29;570.63;;;523.23;;
9807;SDS011;4943;52.550;13.462;2023-10-13T09:03:14;583.97;;;536.07;;
9807;SDS011;4943;52.550;13.462;2023-10-13T09:06:02;642.90;;;592.40;;
9807;SDS011;4943;52.550;13.462;2023-10-13T09:08:33;658.93;;;607.20;;
9807;SDS011;4943;52.550;13.462;2023-10-13T09:11:10;653.67;;;601.90;;
9807;SDS011;4943;52.550;13.462;2023-10-13T09:13:39;639.90;;;588.23;;
9807;SDS011;4943;52.550;13.462;2023-10-13T09:16:12;635.63;;;584.00;;
9807;SDS011;4943;52.550;13.462;2023-10-13T09:18:50;642.47;;;590.37;;
9807;SDS011;4943;52.550;13.462;2023-10-13T09:21:19;587.87;;;539.63;;
9807;SDS011;4943;52.550;13.462;2023-10-13T09:24:01;549.73;;;503.47;;
9807;SDS011;4943;52.550;13.462;2023-10-13T09:26:43;516.87;;;472.00;;
9807;SDS011;4943;52.550;13.462;2023-10-13T09:29:14;442.33;;;400.03;;
9807;SDS011;4943;52.550;13.462;2023-10-13T09:31:57;361.07;;;317.23;;
9807;SDS011;4943;52.550;13.462;2023-10-13T09:34:30;381.83;;;342.03;;
9807;SDS011;4943;52.550;13.462;2023-10-13T09:37:01;365.47;;;323.73;;
9807;SDS011;4943;52.550;13.462;2023-10-13T09:39:30;326.83;;;254.10;;
9807;SDS011;4943;52.550;13.462;2023-10-13T09:42:17;308.67;;;184.53;;
9807;SDS011;4943;52.550;13.462;2023-10-13T09:44:45;294.20;;;143.97;;
9807;SDS011;4943;52.550;13.462;2023-10-13T09:47:25;289.57;;;133.50;;
9807;SDS011;4943;52.550;13.462;2023-10-13T09:50:05;296.97;;;139.63;;
9807;SDS011;4943;52.550;13.462;2023-10-13T09:52:50;294.10;;;138.97;;
9807;SDS011;4943;52.550;13.462;2023-10-13T09:55:23;302.13;;;154.20;;
9807;SDS011;4943;52.550;13.462;2023-10-13T09:57:57;304.00;;;165.20;;
9807;SDS011;4943;52.550;13.462;2023-10-13T10:00:37;298.73;;;151.80;;
9807;SDS011;4943;52.550;13.462;2023-10-13T10:03:16;299.20;;;151.77;;
9807;SDS011;4943;52.550;13.462;2023-10-13T10:06:08;308.77;;;156.17;;
9807;SDS011;4943;52.550;13.462;2023-10-13T10:08:43;306.03;;;162.93;;
9807;SDS011;4943;52.550;13.462;2023-10-13T10:11:30;305.43;;;171.27;;
9807;SDS011;4943;52.550;13.462;2023-10-13T10:14:33;306.13;;;167.10;;
9807;SDS011;4943;52.550;13.462;2023-10-13T10:17:15;312.90;;;182.27;;
9807;SDS011;4943;52.550;13.462;2023-10-13T10:19:47;320.53;;;227.00;;
9807;SDS011;4943;52.550;13.462;2023-10-13T10:22:27;322.83;;;235.73;;
9807;SDS011;4943;52.550;13.462;2023-10-13T10:25:00;318.03;;;220.83;;
9807;SDS011;4943;52.550;13.462;2023-10-13T10:27:29;329.77;;;246.87;;
9807;SDS011;4943;52.550;13.462;2023-10-13T10:29:58;345.60;;;288.53;;
9807;SDS011;4943;52.550;13.462;2023-10-13T10:32:34;337.83;;;275.60;;
9807;SDS011;4943;52.550;13.462;2023-10-13T10:35:06;373.17;;;329.57;;
9807;SDS011;4943;52.550;13.462;2023-10-13T10:37:42;399.77;;;359.80;;
9807;SDS011;4943;52.550;13.462;2023-10-13T10:40:14;416.60;;;375.77;;
9807;SDS011;4943;52.550;13.462;2023-10-13T10:43:00;441.20;;;399.90;;
9807;SDS011;4943;52.550;13.462;2023-10-13T10:45:47;432.97;;;391.50;;
9807;SDS011;4943;52.550;13.462;2023-10-13T10:48:17;437.90;;;396.20;;
9807;SDS011;4943;52.550;13.462;2023-10-13T10:50:54;460.50;;;417.97;;
9807;SDS011;4943;52.550;13.462;2023-10-13T10:53:24;442.57;;;400.10;;
9807;SDS011;4943;52.550;13.462;2023-10-13T10:56:06;453.37;;;410.77;;
9807;SDS011;4943;52.550;13.462;2023-10-13T10:58:46;446.50;;;404.67;;
9807;SDS011;4943;52.550;13.462;2023-10-13T11:01:15;431.67;;;390.63;;
9807;SDS011;4943;52.550;13.462;2023-10-13T11:03:54;411.90;;;371.20;;
9807;SDS011;4943;52.550;13.462;2023-10-13T11:06:25;403.17;;;362.30;;
9807;SDS011;4943;52.550;13.462;2023-10-13T11:09:04;401.13;;;359.83;;
9807;SDS011;4943;52.550;13.462;2023-10-13T11:11:45;388.33;;;348.73;;
9807;SDS011;4943;52.550;13.462;2023-10-13T11:14:22;418.67;;;377.87;;
9807;SDS011;4943;52.550;13.462;2023-10-13T11:16:50;429.20;;;387.40;;
9807;SDS011;4943;52.550;13.462;2023-10-13T11:19:21;453.73;;;410.57;;
9807;SDS011;4943;52.550;13.462;2023-10-13T11:22:09;434.57;;;392.60;;
9807;SDS011;4943;52.550;13.462;2023-10-13T11:24:42;445.73;;;403.70;;
9807;SDS011;4943;52.550;13.462;2023-10-13T11:27:13;431.77;;;390.57;;
9807;SDS011;4943;52.550;13.462;2023-10-13T11:29:47;396.97;;;356.47;;
9807;SDS011;4943;52.550;13.462;2023-10-13T11:32:19;428.67;;;386.33;;
9807;SDS011;4943;52.550;13.462;2023-10-13T11:34:48;391.47;;;351.77;;
9807;SDS011;4943;52.550;13.462;2023-10-13T11:37:21;357.77;;;316.40;;
9807;SDS011;4943;52.550;13.462;2023-10-13T11:40:07;386.00;;;345.47;;
9807;SDS011;4943;52.550;13.462;2023-10-13T11:42:42;352.10;;;304.73;;
9807;SDS011;4943;52.550;13.462;2023-10-13T11:45:13;370.67;;;331.40;;
9807;SDS011;4943;52.550;13.462;2023-10-13T11:47:55;402.70;;;362.60;;
9807;SDS011;4943;52.550;13.462;2023-10-13T11:50:26;353.97;;;309.17;;
9807;SDS011;4943;52.550;13.462;2023-10-13T11:53:00;355.17;;;309.60;;
9807;SDS011;4943;52.550;13.462;2023-10-13T11:55:35;342.80;;;282.53;;
9807;SDS011;4943;52.550;13.462;2023-10-13T11:58:03;352.37;;;306.00;;
9807;SDS011;4943;52.550;13.462;2023-10-13T12:00:32;402.50;;;361.87;;
9807;SDS011;4943;52.550;13.462;2023-10-13T12:03:14;388.33;;;348.33;;
9807;SDS011;4943;52.550;13.462;2023-10-13T12:06:00;433.60;;;392.63;;
9807;SDS011;4943;52.550;13.462;2023-10-13T12:08:45;494.57;;;451.00;;
9807;SDS011;4943;52.550;13.462;2023-10-13T12:11:20;498.43;;;452.77;;
9807;SDS011;4943;52.550;13.462;2023-10-13T12:14:05;518.60;;;473.90;;
9807;SDS011;4943;52.550;13.462;2023-10-13T12:16:43;561.67;;;515.23;;
9807;SDS011;4943;52.550;13.462;2023-10-13T12:19:15;534.77;;;489.07;;
9807;SDS011;4943;52.550;13.462;2023-10-13T12:21:44;569.70;;;522.30;;
9807;SDS011;4943;52.550;13.462;2023-10-13T12:24:13;593.20;;;545.23;;
9807;SDS011;4943;52.550;13.462;2023-10-13T12:26:50;607.17;;;558.57;;
9807;SDS011;4943;52.550;13.462;2023-10-13T12:29:23;605.47;;;556.63;;
9807;SDS011;4943;52.550;13.462;2023-10-13T12:31:54;624.23;;;573.90;;
9807;SDS011;4943;52.550;13.462;2023-10-13T12:34:34;621.90;;;571.97;;
9807;SDS011;4943;52.550;13.462;2023-10-13T12:37:20;630.87;;;580.40;;
9807;SDS011;4943;52.550;13.462;2023-10-13T12:40:05;626.60;;;576.33;;
9807;SDS011;4943;52.550;13.462;2023-10-13T12:42:54;636.40;;;585.50;;
9807;SDS011;4943;52.550;13.462;2023-10-13T12:45:40;656.80;;;604.53;;
9807;SDS011;4943;52.550;13.462;2023-10-13T12:48:26;683.63;;;630.73;;
9807;SDS011;4943;52.550;13.462;2023-10-13T12:51:13;691.70;;;638.03;;
9807;SDS011;4943;52.550;13.462;2023-10-13T12:53:47;711.23;;;656.27;;
9807;SDS011;4943;52.550;13.462;2023-10-13T12:56:16;703.40;;;649.07;;
9807;SDS011;4943;52.550;13.462;2023-10-13T12:58:53;715.57;;;659.23;;
9807;SDS011;4943;52.550;13.462;2023-10-13T13:01:23;711.33;;;656.27;;
9807;SDS011;4943;52.550;13.462;2023-10-13T13:03:59;713.60;;;658.53;;
9807;SDS011;4943;52.550;13.462;2023-10-13T13:06:30;726.73;;;671.00;;
9807;SDS011;4943;52.550;13.462;2023-10-13T13:08:59;728.33;;;672.67;;
9807;SDS011;4943;52.550;13.462;2023-10-13T13:11:27;714.43;;;659.17;;
9807;SDS011;4943;52.550;13.462;2023-10-13T13:13:57;701.97;;;646.90;;
9807;SDS011;4943;52.550;13.462;2023-10-13T13:16:25;708.47;;;653.17;;
9807;SDS011;4943;52.550;13.462;2023-10-13T13:18:57;705.67;;;650.47;;
9807;SDS011;4943;52.550;13.462;2023-10-13T13:21:25;715.07;;;659.10;;
9807;SDS011;4943;52.550;13.462;2023-10-13T13:23:53;722.50;;;666.77;;
9807;SDS011;4943;52.550;13.462;2023-10-13T13:26:22;711.57;;;655.57;;
9807;SDS011;4943;52.550;13.462;2023-10-13T13:28:50;717.43;;;661.40;;
9807;SDS011;4943;52.550;13.462;2023-10-13T13:31:20;715.97;;;659.90;;
9807;SDS011;4943;52.550;13.462;2023-10-13T13:33:52;708.80;;;653.13;;
9807;SDS011;4943;52.550;13.462;2023-10-13T13:36:20;725.90;;;669.53;;
9807;SDS011;4943;52.550;13.462;2023-10-13T13:38:49;722.80;;;667.00;;
9807;SDS011;4943;52.550;13.462;2023-10-13T13:41:17;713.87;;;658.43;;
9807;SDS011;4943;52.550;13.462;2023-10-13T13:43:46;714.00;;;658.17;;
9807;SDS011;4943;52.550;13.462;2023-10-13T13:46:23;719.60;;;664.07;;
9807;SDS011;4943;52.550;13.462;2023-10-13T13:48:54;733.90;;;677.70;;
9807;SDS011;4943;52.550;13.462;2023-10-13T13:51:26;738.33;;;681.90;;
9807;SDS011;4943;52.550;13.462;2023-10-13T13:53:55;720.27;;;664.20;;
9807;SDS011;4943;52.550;13.462;2023-10-13T13:56:24;718.43;;;662.37;;
9807;SDS011;4943;52.550;13.462;2023-10-13T13:58:54;709.23;;;654.57;;
9807;SDS011;4943;52.550;13.462;2023-10-13T14:01:24;711.33;;;656.30;;
9807;SDS011;4943;52.550;13.462;2023-10-13T14:03:53;703.90;;;649.30;;
9807;SDS011;4943;52.550;13.462;2023-10-13T14:06:24;695.93;;;642.17;;
9807;SDS011;4943;52.550;13.462;2023-10-13T14:08:53;708.67;;;654.00;;
9807;SDS011;4943;52.550;13.462;2023-10-13T14:11:23;708.80;;;653.50;;
9807;SDS011;4943;52.550;13.462;2023-10-13T14:14:11;700.50;;;645.63;;
9807;SDS011;4943;52.550;13.462;2023-10-13T14:16:41;701.87;;;648.17;;
9807;SDS011;4943;52.550;13.462;2023-10-13T14:19:12;706.57;;;651.90;;
9807;SDS011;4943;52.550;13.462;2023-10-13T14:21:46;698.97;;;644.83;;
9807;SDS011;4943;52.550;13.462;2023-10-13T14:24:20;707.63;;;652.77;;
9807;SDS011;4943;52.550;13.462;2023-10-13T14:26:53;701.33;;;647.57;;
9807;SDS011;4943;52.550;13.462;2023-10-13T14:29:21;708.27;;;654.73;;
9807;SDS011;4943;52.550;13.462;2023-10-13T14:31:54;712.17;;;657.07;;
9807;SDS011;4943;52.550;13.462;2023-10-13T14:34:22;730.13;;;673.93;;
9807;SDS011;4943;52.550;13.462;2023-10-13T14:36:52;705.27;;;651.50;;
9807;SDS011;4943;52.550;13.462;2023-10-13T14:39:21;697.67;;;643.83;;
9807;SDS011;4943;52.550;13.462;2023-10-13T14:41:56;713.43;;;659.17;;
9807;SDS011;4943;52.550;13.462;2023-10-13T14:44:26;706.57;;;652.67;;
9807;SDS011;4943;52.550;13.462;2023-10-13T14:46:55;707.87;;;654.23;;
9807;SDS011;4943;52.550;13.462;2023-10-13T14:49:23;729.40;;;674.00;;
9807;SDS011;4943;52.550;13.462;2023-10-13T14:51:52;705.27;;;651.20;;
9807;SDS011;4943;52.550;13.462;2023-10-13T14:54:21;704.30;;;648.97;;
9807;SDS011;4943;52.550;13.462;2023-10-13T14:56:59;707.47;;;653.47;;